Time;durP1;ratioP1;P1;durP2;ratioP2;P2;SDS_P1;SDS_P2;PMS_P1;PMS_P2;Temp;Humidity;BMP_temperature;BMP_pressure;BME280_temperature;BME280_humidity;BME280_pressure;Samples;Min_cycle;Max_cycle;Signal;HPM_P1;HPM_P2
2022/10/23 08:01:32;;;;;;;8.63;4.30;;;;;;;13.70;100.00;100787.41;5274514;28;20406;-71
2022/10/23 08:04:09;;;;;;;7.03;4.20;;;;;;;13.71;100.00;100777.94;5259088;28;20055;-72
2022/10/23 08:06:40;;;;;;;8.63;4.38;;;;;;;13.79;100.00;100781.94;5255444;28;20079;-73
2022/10/23 08:09:11;;;;;;;7.95;3.78;;;;;;;13.83;100.00;100777.38;5238568;28;20087;-72
2022/10/23 08:11:43;;;;;;;8.43;3.97;;;;;;;13.87;100.00;100775.63;5238011;28;20024;-72
2022/10/23 08:14:14;;;;;;;7.80;4.60;;;;;;;13.89;100.00;100776.13;5238505;28;20171;-71
2022/10/23 08:16:45;;;;;;;8.85;3.65;;;;;;;13.95;100.00;100774.03;5254879;28;20522;-72
2022/10/23 08:19:17;;;;;;;5.70;4.20;;;;;;;13.97;100.00;100767.03;5258259;28;20026;-72
2022/10/23 08:21:48;;;;;;;6.07;4.13;;;;;;;14.03;100.00;100781.66;5259079;28;20017;-71
2022/10/23 08:24:26;;;;;;;8.07;4.20;;;;;;;14.09;100.00;100777.63;5258554;28;20025;-72
2022/10/23 08:26:57;;;;;;;9.35;4.18;;;;;;;14.08;100.00;100767.59;5258173;28;20087;-71
2022/10/23 08:29:29;;;;;;;6.65;4.07;;;;;;;14.15;100.00;100770.78;5258909;28;20414;-72
2022/10/23 08:32:00;;;;;;;5.57;4.28;;;;;;;14.16;100.00;100768.81;5258837;28;20035;-72
2022/10/23 08:34:31;;;;;;;9.13;4.38;;;;;;;14.20;100.00;100772.63;5237710;28;20029;-71
2022/10/23 08:37:03;;;;;;;8.05;4.00;;;;;;;14.20;100.00;100759.50;5238185;28;20495;-71
2022/10/23 08:39:35;;;;;;;26.00;22.15;;;;;;;14.20;100.00;100753.09;5246967;28;20029;-72
2022/10/23 08:42:17;;;;;;;8.00;5.05;;;;;;;14.26;100.00;100757.41;5244169;28;20101;-71
2022/10/23 08:44:58;;;;;;;6.90;4.32;;;;;;;14.29;100.00;100742.81;5265840;28;20025;-71
2022/10/23 08:47:39;;;;;;;6.95;4.20;;;;;;;14.32;100.00;100743.03;5264748;28;20037;-71
2022/10/23 08:50:31;;;;;;;6.65;3.72;;;;;;;14.32;100.00;100737.44;5259591;28;20121;-72
2022/10/23 08:53:31;;;;;;;8.68;4.15;;;;;;;14.33;100.00;100738.25;5237686;28;20072;-71
2022/10/23 08:56:16;;;;;;;5.50;4.05;;;;;;;14.36;100.00;100735.66;5237718;28;20121;-71
2022/10/23 08:58:54;;;;;;;7.60;3.95;;;;;;;14.39;100.00;100736.16;5237910;28;20037;-71
2022/10/23 09:01:38;;;;;;;6.35;3.90;;;;;;;14.44;100.00;100736.03;5236665;28;20046;-72
2022/10/23 09:04:14;;;;;;;5.45;3.90;;;;;;;14.47;100.00;100730.66;5237554;28;20037;-71
2022/10/23 09:06:49;;;;;;;6.72;4.18;;;;;;;14.49;100.00;100722.75;5238186;28;20116;-70
2022/10/23 09:09:29;;;;;;;;;;;;;;;14.57;100.00;100722.06;5236935;28;20034;-71
2022/10/23 09:12:07;;;;;;;8.18;4.70;;;;;;;14.56;100.00;100712.00;5228679;28;20360;-70
2022/10/23 09:14:51;;;;;;;10.77;5.15;;;;;;;14.59;100.00;100710.56;5231150;28;20036;-71
2022/10/23 09:17:30;;;;;;;8.30;4.05;;;;;;;14.62;100.00;100711.88;5246945;28;20029;-71
2022/10/23 09:20:19;;;;;;;5.50;4.10;;;;;;;14.64;100.00;100702.03;5264769;28;20064;-72
2022/10/23 09:22:59;;;;;;;9.27;4.90;;;;;;;14.69;100.00;100699.09;5264104;28;20336;-71
2022/10/23 09:25:36;;;;;;;10.18;4.18;;;;;;;14.70;100.00;100700.78;5224113;28;20029;-70
2022/10/23 09:28:29;;;;;;;7.78;4.80;;;;;;;14.73;100.00;100688.97;5223163;28;20487;-70
2022/10/23 09:31:09;;;;;;;6.40;4.50;;;;;;;14.78;100.00;100690.78;5264754;28;20032;-71
2022/10/23 09:33:52;;;;;;;14.35;4.80;;;;;;;14.78;100.00;100685.22;5223588;28;20377;-70
2022/10/23 09:36:24;;;;;;;8.73;4.10;;;;;;;14.82;100.00;100674.22;5222496;28;20476;-71
2022/10/23 09:38:58;;;;;;;5.57;3.83;;;;;;;14.87;100.00;100660.91;5223210;28;20018;-71
2022/10/23 09:41:36;;;;;;;7.45;4.72;;;;;;;14.87;100.00;100660.91;5235254;28;20022;-70
2022/10/23 09:44:07;;;;;;;8.82;4.28;;;;;;;14.91;100.00;100663.91;5242963;28;20079;-71
2022/10/23 09:46:40;;;;;;;7.50;4.15;;;;;;;14.92;100.00;100663.56;5243705;28;20021;-72
2022/10/23 09:49:18;;;;;;;6.80;4.45;;;;;;;14.93;100.00;100672.75;5238422;28;20365;-71
2022/10/23 09:52:02;;;;;;;8.35;4.03;;;;;;;14.99;100.00;100663.09;5258384;28;20031;-71
2022/10/23 09:54:38;;;;;;;9.88;4.80;;;;;;;14.98;100.00;100661.44;5254097;28;20370;-70
2022/10/23 09:57:21;;;;;;;5.07;4.07;;;;;;;14.99;100.00;100657.53;5264457;28;20032;-71
2022/10/23 10:00:00;;;;;;;7.60;4.45;;;;;;;15.06;100.00;100651.44;5222067;28;20092;-71
2022/10/23 10:02:35;;;;;;;5.38;4.07;;;;;;;15.13;100.00;100646.22;5263210;28;20036;-70
2022/10/23 10:05:29;;;;;;;8.77;5.00;;;;;;;15.15;100.00;100633.56;5263314;28;20021;-71
2022/10/23 10:08:04;;;;;;;7.22;3.33;;;;;;;15.16;100.00;100632.44;5234746;28;20045;-70
2022/10/23 10:11:00;;;;;;;6.45;3.80;;;;;;;15.18;100.00;100620.91;5264244;28;20553;-71
2022/10/23 10:13:54;;;;;;;;;;;;;;;15.27;100.00;100610.59;5233907;28;20044;-71
2022/10/23 10:16:55;;;;;;;7.75;3.20;;;;;;;15.26;100.00;100616.50;5223532;28;19913;-71
2022/10/23 10:19:32;;;;;;;4.97;3.25;;;;;;;15.30;100.00;100609.13;5239778;28;20033;-70
2022/10/23 10:22:25;;;;;;;8.02;3.40;;;;;;;15.34;100.00;100604.50;5243142;28;20115;-71
2022/10/23 10:25:14;;;;;;;6.25;3.33;;;;;;;15.36;100.00;100605.00;5221315;28;20022;-71
2022/10/23 10:28:06;;;;;;;8.00;3.60;;;;;;;15.40;100.00;100601.22;5222256;28;20060;-71
2022/10/23 10:31:08;;;;;;;4.47;3.03;;;;;;;15.42;100.00;100607.31;5239483;28;20036;-71
2022/10/23 10:34:01;;;;;;;6.85;3.63;;;;;;;15.43;100.00;100608.13;5221334;28;20029;-71
2022/10/23 10:36:53;;;;;;;8.65;4.90;;;;;;;15.48;100.00;100604.34;5222271;28;20472;-71
2022/10/23 10:39:55;;;;;;;5.80;3.60;;;;;;;15.54;100.00;100600.22;5222231;28;20034;-71
2022/10/23 10:43:04;;;;;;;6.60;3.25;;;;;;;15.59;100.00;100592.50;5241538;28;20061;-71
2022/10/23 10:45:47;;;;;;;5.25;3.50;;;;;;;15.65;100.00;100591.19;5242029;28;20360;-71
2022/10/23 10:48:58;;;;;;;8.77;4.13;;;;;;;15.72;100.00;100579.56;5240550;28;20041;-71
2022/10/23 10:51:36;;;;;;;5.05;3.45;;;;;;;15.75;100.00;100580.88;5237144;28;20041;-71
2022/10/23 10:54:35;;;;;;;6.53;3.85;;;;;;;15.85;99.84;100572.94;5262204;28;20082;-71
2022/10/23 10:57:20;;;;;;;7.45;4.45;;;;;;;15.99;98.89;100561.56;5247513;28;20029;-69
2022/10/23 10:59:54;;;;;;;3.92;3.10;;;;;;;16.02;98.43;100557.28;5221077;28;20050;-71
2022/10/23 11:02:31;;;;;;;4.32;3.28;;;;;;;16.06;97.46;100559.06;5221435;28;20022;-72
2022/10/23 11:05:26;;;;;;;7.28;3.20;;;;;;;16.13;97.38;100572.56;5221767;28;20022;-71
2022/10/23 11:08:21;;;;;;;6.70;4.63;;;;;;;16.16;97.19;100565.47;5229772;28;20037;-72
2022/10/23 11:10:59;;;;;;;7.80;4.65;;;;;;;16.22;97.32;100562.13;5241815;28;20106;-71
2022/10/23 11:13:39;;;;;;;6.65;3.88;;;;;;;16.22;96.23;100550.94;5240717;28;20027;-71
2022/10/23 11:16:39;;;;;;;6.20;4.05;;;;;;;16.29;96.00;100556.03;5240889;28;20030;-71
2022/10/23 11:19:26;;;;;;;6.60;3.50;;;;;;;16.34;95.37;100560.63;5241052;28;20088;-73
2022/10/23 11:22:20;;;;;;;8.32;4.72;;;;;;;16.39;94.84;100561.25;5240986;28;20079;-71
2022/10/23 11:25:20;;;;;;;4.72;3.80;;;;;;;16.46;95.23;100541.97;5241489;28;20025;-72
2022/10/23 11:28:15;;;;;;;5.40;3.78;;;;;;;16.56;94.61;100542.72;5241514;28;20030;-71
2022/10/23 11:31:24;;;;;;;5.25;3.17;;;;;;;16.63;94.53;100527.03;5240552;28;20075;-72
2022/10/23 11:34:12;;;;;;;8.65;3.25;;;;;;;16.63;94.25;100523.44;5229759;28;20539;-72
2022/10/23 11:36:52;;;;;;;4.28;3.10;;;;;;;16.69;94.15;100505.25;5253380;28;20555;-71
2022/10/23 11:39:29;;;;;;;8.65;3.22;;;;;;;16.74;93.54;100508.72;5254613;28;20377;-71
2022/10/23 11:42:03;;;;;;;5.03;2.80;;;;;;;16.80;93.66;100500.97;5221144;28;20022;-72
2022/10/23 11:44:51;;;;;;;8.55;3.33;;;;;;;16.87;92.97;100504.03;5219965;28;20658;-72
2022/10/23 11:47:37;;;;;;;5.47;3.08;;;;;;;16.91;92.75;100495.75;5239144;28;20108;-71
2022/10/23 11:50:08;;;;;;;7.78;4.22;;;;;;;16.98;92.63;100489.63;5240487;28;20565;-71
2022/10/23 11:52:52;;;;;;;5.05;3.17;;;;;;;17.00;92.72;100487.28;5241012;28;20064;-72
2022/10/23 11:55:31;;;;;;;5.60;3.08;;;;;;;16.97;91.79;100485.16;5241049;28;20020;-71
2022/10/23 11:58:06;;;;;;;6.90;2.80;;;;;;;17.00;92.07;100487.28;5239547;28;20476;-71
2022/10/23 12:00:55;;;;;;;10.05;4.05;;;;;;;17.05;92.44;100487.06;5240930;28;20140;-72
2022/10/23 12:03:47;;;;;;;4.22;3.10;;;;;;;17.04;92.59;100485.44;5240746;28;20079;-72
2022/10/23 12:06:26;;;;;;;7.35;3.35;;;;;;;17.06;92.32;100485.94;5239165;28;20029;-71
2022/10/23 12:09:05;;;;;;;5.85;3.45;;;;;;;17.11;92.38;100482.94;5241567;28;20070;-71
2022/10/23 12:11:46;;;;;;;10.80;4.30;;;;;;;17.11;92.63;100472.53;5240454;28;20037;-71
2022/10/23 12:14:28;;;;;;;6.00;3.13;;;;;;;17.10;92.68;100470.91;5238862;28;20049;-70
2022/10/23 12:17:17;;;;;;;4.63;3.25;;;;;;;17.11;92.56;100461.31;5237839;28;20022;-70
2022/10/23 12:19:52;;;;;;;6.00;3.30;;;;;;;17.14;92.76;100457.03;5220193;28;20042;-71
2022/10/23 12:22:31;;;;;;;5.55;3.90;;;;;;;17.19;92.87;100462.41;5221100;28;20033;-71
2022/10/23 12:25:32;;;;;;;5.75;3.55;;;;;;;17.20;92.70;100455.63;5219465;28;20058;-71
2022/10/23 12:28:33;;;;;;;7.55;4.70;;;;;;;17.25;92.52;100441.41;5224948;28;20020;-71
2022/10/23 12:31:24;;;;;;;6.53;3.47;;;;;;;17.28;92.63;100443.53;5240106;28;20022;-71
2022/10/23 12:34:02;;;;;;;4.32;3.15;;;;;;;17.28;92.86;100431.50;5241119;28;20429;-71
2022/10/23 12:37:06;;;;;;;5.47;3.03;;;;;;;17.29;92.76;100431.16;5241172;28;20061;-70
2022/10/23 12:39:39;;;;;;;4.72;2.90;;;;;;;17.33;92.66;100425.66;5226922;28;20473;-72
2022/10/23 12:42:20;;;;;;;6.68;3.50;;;;;;;17.33;92.72;100418.09;5220535;28;20026;-70
2022/10/23 12:45:05;;;;;;;7.93;2.88;;;;;;;17.39;92.33;100416.72;5220540;28;20097;-70
2022/10/23 12:47:38;;;;;;;4.95;2.70;;;;;;;17.42;91.59;100423.59;5227382;28;20548;-70
2022/10/23 12:50:18;;;;;;;6.57;3.28;;;;;;;17.48;90.96;100413.78;5244658;28;20503;-70
2022/10/23 12:52:59;;;;;;;5.15;2.90;;;;;;;17.47;91.19;100417.78;5244050;28;20075;-70
2022/10/23 12:55:45;;;;;;;4.32;2.50;;;;;;;17.50;91.15;100403.06;5243912;28;20377;-70
2022/10/23 12:58:31;;;;;;;5.40;2.70;;;;;;;17.57;90.85;100402.50;5244627;28;20021;-70
2022/10/23 13:01:05;;;;;;;;;;;;;;;17.59;90.95;100397.38;5244140;28;20488;-70
2022/10/23 13:03:37;;;;;;;2.88;2.47;;;;;;;17.58;90.37;100384.50;5244803;28;19952;-71
2022/10/23 13:06:10;;;;;;;6.20;3.00;;;;;;;17.54;90.55;100383.59;5243675;28;20132;-71
2022/10/23 13:08:44;;;;;;;7.78;3.08;;;;;;;17.61;90.54;100383.78;5243583;28;20032;-70
2022/10/23 13:11:21;;;;;;;8.63;4.13;;;;;;;17.65;90.59;100373.53;5244462;28;20387;-71
2022/10/23 13:13:53;;;;;;;6.07;3.08;;;;;;;17.62;89.86;100360.22;5233377;28;20437;-72
2022/10/23 13:16:25;;;;;;;8.82;3.10;;;;;;;17.64;90.03;100360.69;5223737;28;20044;-72
2022/10/23 13:18:56;;;;;;;4.85;3.17;;;;;;;17.67;90.31;100362.78;5242415;28;20108;-71
2022/10/23 13:21:29;;;;;;;5.60;3.67;;;;;;;17.71;90.52;100362.91;5242293;28;20538;-71
2022/10/23 13:24:00;;;;;;;4.40;3.25;;;;;;;17.71;90.97;100349.69;5244741;28;20111;-72
2022/10/23 13:26:43;;;;;;;4.57;2.88;;;;;;;17.73;90.67;100340.94;5244146;28;20426;-71
2022/10/23 13:29:26;;;;;;;4.07;2.70;;;;;;;17.75;90.15;100333.81;5242396;28;20034;-71
2022/10/23 13:32:09;;;;;;;6.43;2.80;;;;;;;17.76;90.42;100332.63;5243887;28;20060;-71
2022/10/23 13:34:50;;;;;;;8.77;3.10;;;;;;;17.80;90.05;100324.38;5243240;28;20022;-70
2022/10/23 13:37:27;;;;;;;5.32;2.60;;;;;;;17.83;90.56;100328.47;5243885;28;20408;-71
2022/10/23 13:40:06;;;;;;;4.80;2.83;;;;;;;17.85;90.17;100317.72;5242734;28;20029;-71
2022/10/23 13:42:37;;;;;;;7.35;3.78;;;;;;;17.87;90.20;100318.16;5242898;28;20032;-72
2022/10/23 13:45:17;;;;;;;3.90;2.65;;;;;;;17.88;90.68;100315.03;5243613;28;20469;-71
2022/10/23 13:47:48;;;;;;;6.40;3.17;;;;;;;17.90;90.44;100318.31;5237605;28;20511;-72
2022/10/23 13:50:20;;;;;;;4.88;3.63;;;;;;;17.94;90.22;100324.00;5243059;28;20049;-71
2022/10/23 13:52:51;;;;;;;7.40;4.32;;;;;;;17.94;90.28;100324.00;5243365;28;20043;-72
2022/10/23 13:55:24;;;;;;;6.03;3.47;;;;;;;17.96;90.64;100324.47;5242815;28;20511;-71
2022/10/23 13:57:55;;;;;;;7.00;2.80;;;;;;;17.96;90.69;100325.28;5242613;28;20017;-71
2022/10/23 14:00:26;;;;;;;3.50;3.00;;;;;;;17.98;90.33;100325.75;5243455;28;20141;-72
2022/10/23 14:02:58;;;;;;;5.95;2.92;;;;;;;17.99;90.96;100326.56;5243068;28;20022;-72
2022/10/23 14:05:30;;;;;;;5.50;2.58;;;;;;;17.96;91.31;100316.06;5224305;28;20105;-72
2022/10/23 14:08:01;;;;;;;4.88;3.33;;;;;;;17.98;91.44;100319.34;5260381;28;20051;-71
2022/10/23 14:10:33;;;;;;;6.68;3.10;;;;;;;17.96;91.67;100313.25;5263830;28;20025;-71
2022/10/23 14:13:05;;;;;;;9.13;3.38;;;;;;;17.98;91.26;100310.94;5245813;28;20384;-71
2022/10/23 14:15:36;;;;;;;4.70;2.58;;;;;;;17.98;91.01;100310.94;5223050;28;20098;-71
2022/10/23 14:18:07;;;;;;;8.18;3.70;;;;;;;17.94;91.41;100305.19;5221607;28;20053;-71
2022/10/23 14:20:39;;;;;;;8.02;3.38;;;;;;;17.97;92.15;100306.47;5223060;28;20033;-71
2022/10/23 14:23:10;;;;;;;4.15;2.85;;;;;;;17.94;91.94;100302.38;5241672;28;20027;-71
2022/10/23 14:25:42;;;;;;;8.27;2.75;;;;;;;17.93;91.78;100302.75;5263083;28;20021;-72
2022/10/23 14:28:13;;;;;;;6.47;2.95;;;;;;;17.92;92.44;100307.56;5236834;28;20021;-72
2022/10/23 14:30:44;;;;;;;10.57;5.82;;;;;;;17.90;92.64;100304.28;5235011;28;20033;-72
2022/10/23 14:33:15;;;;;;;4.32;3.03;;;;;;;17.90;92.74;100311.88;5249699;28;20392;-72
2022/10/23 14:35:50;;;;;;;5.70;3.10;;;;;;;17.93;92.89;100302.75;5263699;28;20032;-72
2022/10/23 14:38:21;;;;;;;5.47;3.20;;;;;;;17.88;93.16;100308.59;5242626;28;20113;-71
2022/10/23 14:40:52;;;;;;;6.72;3.47;;;;;;;17.86;92.93;100316.53;5221920;28;20109;-71
2022/10/23 14:43:27;;;;;;;10.90;3.70;;;;;;;17.86;93.06;100314.56;5222299;28;20419;-71
2022/10/23 14:46:07;;;;;;;3.90;3.13;;;;;;;17.83;92.89;100306.03;5239660;28;20025;-72
2022/10/23 14:48:42;;;;;;;5.47;3.88;;;;;;;17.82;92.97;100302.41;5221683;28;20076;-71
2022/10/23 14:51:19;;;;;;;8.52;3.30;;;;;;;17.85;92.59;100306.50;5220531;28;20120;-71
2022/10/23 14:53:58;;;;;;;6.10;4.72;;;;;;;17.82;92.85;100299.63;5221184;28;20026;-72
2022/10/23 14:56:33;;;;;;;5.32;3.35;;;;;;;17.83;92.56;100303.22;5222300;28;20120;-70
2022/10/23 14:59:05;;;;;;;5.40;3.35;;;;;;;17.86;92.52;100289.31;5246110;28;20021;-70
2022/10/23 15:01:44;;;;;;;3.97;2.85;;;;;;;17.83;92.65;100284.41;5262488;28;20128;-70
2022/10/23 15:04:15;;;;;;;5.55;2.80;;;;;;;17.81;92.38;100281.94;5242098;28;20415;-70
2022/10/23 15:06:47;;;;;;;5.45;3.40;;;;;;;17.80;92.39;100285.94;5220090;28;20032;-70
2022/10/23 15:09:19;;;;;;;7.20;3.72;;;;;;;17.81;93.04;100281.13;5241431;28;20074;-68
2022/10/23 15:11:50;;;;;;;4.72;3.05;;;;;;;17.83;92.65;100275.19;5249334;28;20036;-69
2022/10/23 15:14:21;;;;;;;6.03;3.25;;;;;;;17.79;92.88;100275.03;5257600;28;20032;-67
2022/10/23 15:16:52;;;;;;;5.55;4.00;;;;;;;17.83;92.44;100266.75;5262990;28;20017;-69
2022/10/23 15:19:24;;;;;;;6.75;3.88;;;;;;;17.81;92.98;100270.72;5257051;28;20022;-69
2022/10/23 15:21:55;;;;;;;10.77;4.20;;;;;;;17.76;93.07;100273.75;5239882;28;20029;-69
2022/10/23 15:24:27;;;;;;;5.95;3.53;;;;;;;17.75;93.46;100260.91;5241726;28;20025;-69
2022/10/23 15:26:59;;;;;;;6.60;3.38;;;;;;;17.72;93.35;100261.59;5241957;28;20036;-69
2022/10/23 15:29:30;;;;;;;5.22;3.35;;;;;;;17.71;93.52;100254.34;5230247;28;20026;-69
2022/10/23 15:32:04;;;;;;;3.72;3.30;;;;;;;17.72;93.89;100266.41;5221077;28;20025;-69
2022/10/23 15:34:36;;;;;;;10.65;4.40;;;;;;;17.67;93.85;100256.25;5220271;28;20042;-69
2022/10/23 15:37:08;;;;;;;5.82;3.45;;;;;;;17.65;94.00;100263.38;5221755;28;20389;-69
2022/10/23 15:39:40;;;;;;;7.10;3.22;;;;;;;17.64;94.00;100256.94;5241668;28;20026;-72
2022/10/23 15:42:11;;;;;;;4.55;3.60;;;;;;;17.62;94.20;100255.66;5240941;28;20076;-72
2022/10/23 15:44:43;;;;;;;4.82;3.03;;;;;;;17.59;94.78;100249.59;5241796;28;20026;-72
2022/10/23 15:47:14;;;;;;;5.30;2.85;;;;;;;17.58;94.83;100247.13;5224418;28;20033;-72
2022/10/23 15:49:48;;;;;;;6.28;3.05;;;;;;;17.55;95.20;100251.44;5231245;28;20025;-73
2022/10/23 15:52:20;;;;;;;6.50;3.58;;;;;;;17.54;95.37;100232.19;5241532;28;20041;-72
2022/10/23 15:54:51;;;;;;;8.02;4.68;;;;;;;17.53;95.30;100219.31;5233122;28;20022;-71
2022/10/23 15:57:23;;;;;;;8.68;4.05;;;;;;;17.53;95.12;100203.31;5220463;28;20033;-72
2022/10/23 15:59:57;;;;;;;8.23;3.28;;;;;;;17.48;95.47;100189.53;5220680;28;20100;-72
2022/10/23 16:02:28;;;;;;;7.75;3.20;;;;;;;17.46;95.84;100177.03;5232244;28;20442;-72
2022/10/23 16:04:59;;;;;;;6.07;3.63;;;;;;;17.47;95.57;100159.88;5230017;28;20017;-72
2022/10/23 16:07:31;;;;;;;6.38;3.65;;;;;;;17.45;95.79;100159.41;5262122;28;20094;-73
2022/10/23 16:10:02;;;;;;;5.03;2.80;;;;;;;17.43;95.69;100166.53;5261160;28;20028;-72
2022/10/23 16:12:34;;;;;;;8.98;3.75;;;;;;;17.41;96.14;100177.28;5235776;28;20061;-72
2022/10/23 16:15:06;;;;;;;3.95;2.78;;;;;;;17.43;96.00;100170.16;5221094;28;20021;-72
2022/10/23 16:17:38;;;;;;;8.10;4.03;;;;;;;17.41;95.82;100166.06;5219985;28;20036;-72
2022/10/23 16:20:19;;;;;;;5.43;3.10;;;;;;;17.39;96.02;100158.84;5220869;28;20026;-72
2022/10/23 16:22:51;;;;;;;6.47;3.45;;;;;;;17.38;95.77;100165.63;5259375;28;20079;-71
2022/10/23 16:25:22;;;;;;;8.13;4.10;;;;;;;17.36;95.97;100181.16;5265729;28;20017;-71
2022/10/23 16:27:53;;;;;;;6.03;3.03;;;;;;;17.39;95.95;100189.69;5262649;28;20017;-71
2022/10/23 16:30:24;;;;;;;5.68;3.33;;;;;;;17.37;96.02;100192.00;5225114;28;20114;-71
2022/10/23 16:32:59;;;;;;;4.75;3.50;;;;;;;17.36;95.90;100193.19;5222749;28;20037;-73
2022/10/23 16:35:30;;;;;;;6.15;3.35;;;;;;;17.34;95.66;100195.53;5262139;28;20028;-72
2022/10/23 16:38:02;;;;;;;5.25;3.20;;;;;;;17.33;96.09;100202.31;5245318;28;20035;-72
2022/10/23 16:40:33;;;;;;;5.30;3.40;;;;;;;17.32;96.18;100220.28;5266126;28;20025;-72
2022/10/23 16:43:05;;;;;;;3.97;3.20;;;;;;;17.32;96.19;100216.66;5265937;28;20079;-72
2022/10/23 16:45:36;;;;;;;6.45;3.00;;;;;;;17.31;96.15;100185.03;5258988;28;20021;-72
2022/10/23 16:48:07;;;;;;;6.65;3.75;;;;;;;17.31;96.04;100179.41;5244718;28;20416;-72
2022/10/23 16:50:40;;;;;;;6.47;3.20;;;;;;;17.30;96.52;100177.75;5254821;28;20433;-72
2022/10/23 16:53:11;;;;;;;6.68;3.63;;;;;;;17.28;96.05;100174.50;5223605;28;20485;-73
2022/10/23 16:55:42;;;;;;;9.07;4.47;;;;;;;17.25;96.39;100175.19;5224184;28;20026;-72
2022/10/23 16:58:13;;;;;;;5.82;3.50;;;;;;;17.26;96.59;100162.84;5232043;28;20028;-72
2022/10/23 17:00:45;;;;;;;6.55;3.50;;;;;;;17.26;96.14;100165.63;5264748;28;20111;-72
2022/10/23 17:03:16;;;;;;;8.05;3.40;;;;;;;17.27;96.45;100172.88;5245599;28;20112;-73
2022/10/23 17:05:47;;;;;;;5.28;3.30;;;;;;;17.28;96.26;100168.91;5237801;28;20502;-75
2022/10/23 17:08:19;;;;;;;12.05;4.90;;;;;;;17.26;96.46;100159.22;5244655;28;20477;-74
2022/10/23 17:11:09;;;;;;;7.18;3.13;;;;;;;17.26;96.09;100165.63;5243705;28;20033;-74
2022/10/23 17:13:42;;;;;;;7.57;3.20;;;;;;;17.25;96.71;100164.00;5243919;28;20028;-74
2022/10/23 17:16:19;;;;;;;4.47;4.03;;;;;;;17.24;96.59;100167.97;5244560;28;20489;-74
2022/10/23 17:18:51;;;;;;;7.75;4.18;;;;;;;17.23;96.61;100174.75;5241668;28;20037;-73
2022/10/23 17:21:22;;;;;;;6.53;3.65;;;;;;;17.22;97.01;100186.31;5241986;28;20036;-73
2022/10/23 17:23:53;;;;;;;6.00;3.40;;;;;;;17.22;96.85;100169.50;5229835;28;20055;-73
2022/10/23 17:26:25;;;;;;;6.97;3.50;;;;;;;17.21;96.72;100185.50;5265172;28;20086;-74
2022/10/23 17:28:57;;;;;;;8.25;3.47;;;;;;;17.21;96.88;100182.69;5250258;28;20029;-73
2022/10/23 17:31:35;;;;;;;7.30;3.65;;;;;;;17.20;97.14;100183.84;5244178;28;20037;-73
